createdAt,value
2019-02-18T00:00:08.326Z,39.30
2019-02-18T00:01:17.967Z,40.00
2019-02-18T00:02:23.608Z,39.40
2019-02-18T00:03:28.172Z,39.50
2019-02-18T00:04:32.650Z,39.50
2019-02-18T00:05:37.143Z,39.60
2019-02-18T00:06:41.610Z,39.60
2019-02-18T00:07:46.087Z,39.50
2019-02-18T00:08:50.634Z,39.50
2019-02-18T00:09:55.203Z,39.60
2019-02-18T00:10:59.677Z,39.60
2019-02-18T00:12:04.258Z,39.70
2019-02-18T00:13:08.828Z,39.70
2019-02-18T00:14:13.422Z,39.70
2019-02-18T00:15:17.993Z,39.70
2019-02-18T00:16:22.562Z,39.80
2019-02-18T00:17:27.084Z,39.70
2019-02-18T00:18:31.638Z,39.70
2019-02-18T00:19:36.240Z,39.80
2019-02-18T00:20:40.731Z,39.70
2019-02-18T00:21:45.393Z,39.70
2019-02-18T00:22:49.871Z,39.80
2019-02-18T00:23:54.349Z,39.90
2019-02-18T00:24:58.803Z,39.80
2019-02-18T00:26:03.359Z,39.90
2019-02-18T00:27:07.862Z,39.90
2019-02-18T00:28:12.599Z,39.80
2019-02-18T00:29:17.077Z,40.00
2019-02-18T00:30:21.600Z,39.90
2019-02-18T00:31:26.081Z,40.00
2019-02-18T00:32:30.581Z,40.10
2019-02-18T00:33:35.135Z,40.00
2019-02-18T00:34:39.617Z,39.90
2019-02-18T00:35:44.136Z,40.00
2019-02-18T00:36:48.676Z,40.00
2019-02-18T00:37:53.697Z,40.10
2019-02-18T00:38:58.195Z,40.80
2019-02-18T00:40:02.659Z,40.50
2019-02-18T00:41:07.441Z,40.00
2019-02-18T00:42:11.936Z,39.90
2019-02-18T00:43:16.441Z,40.00
2019-02-18T00:44:20.903Z,40.00
2019-02-18T00:45:25.410Z,39.90
2019-02-18T00:46:29.995Z,40.00
2019-02-18T00:47:34.468Z,40.10
2019-02-18T00:48:38.978Z,40.00
2019-02-18T00:49:43.457Z,40.00
2019-02-18T00:50:47.954Z,40.10
2019-02-18T00:51:52.473Z,40.20
2019-02-18T00:52:57.006Z,40.30
2019-02-18T00:54:01.740Z,40.20
2019-02-18T00:55:08.491Z,40.20
2019-02-18T00:56:12.945Z,40.30
2019-02-18T00:57:17.486Z,40.40
2019-02-18T00:58:21.973Z,40.50
2019-02-18T00:59:26.856Z,40.10
2019-02-18T01:00:31.433Z,40.80
2019-02-18T01:01:35.928Z,40.80
2019-02-18T01:02:40.806Z,41.40
2019-02-18T01:03:45.324Z,40.90
2019-02-18T01:04:50.170Z,41.00
2019-02-18T01:05:54.664Z,41.00
2019-02-18T01:06:59.116Z,40.90
2019-02-18T01:08:03.672Z,40.80
2019-02-18T01:09:08.113Z,40.80
2019-02-18T01:10:13.203Z,40.80
2019-02-18T01:11:17.661Z,41.00
2019-02-18T01:12:22.187Z,40.90
2019-02-18T01:13:26.638Z,40.90
2019-02-18T01:14:31.486Z,40.90
2019-02-18T01:15:35.972Z,40.90
2019-02-18T01:16:40.455Z,40.80
2019-02-18T01:17:44.936Z,40.70
2019-02-18T01:18:49.699Z,40.80
2019-02-18T01:19:54.406Z,40.80
2019-02-18T01:20:58.873Z,41.00
2019-02-18T01:22:03.358Z,41.10
2019-02-18T01:23:07.862Z,41.20
2019-02-18T01:24:12.402Z,41.20
2019-02-18T01:25:16.881Z,41.30
2019-02-18T01:26:21.339Z,41.30
2019-02-18T01:27:25.824Z,41.40
2019-02-18T01:28:30.307Z,41.50
2019-02-18T01:29:34.797Z,41.40
2019-02-18T01:30:39.395Z,41.40
2019-02-18T01:31:43.873Z,41.30
2019-02-18T01:32:48.355Z,41.30
2019-02-18T01:33:52.941Z,41.30
2019-02-18T01:34:57.406Z,41.40
2019-02-18T01:36:01.857Z,41.30
2019-02-18T01:37:06.653Z,41.40
2019-02-18T01:38:11.199Z,41.40
2019-02-18T01:39:15.682Z,41.40
2019-02-18T01:40:20.175Z,41.40
2019-02-18T01:41:24.702Z,41.50
2019-02-18T01:42:29.180Z,41.50
2019-02-18T01:43:33.787Z,41.40
2019-02-18T01:44:38.256Z,41.40
2019-02-18T01:45:42.716Z,41.50
2019-02-18T01:46:47.181Z,41.60
2019-02-18T01:47:51.667Z,41.70
2019-02-18T01:48:56.190Z,41.60
2019-02-18T01:50:00.665Z,41.60
2019-02-18T01:51:05.243Z,41.60
2019-02-18T01:52:09.777Z,41.50
2019-02-18T01:53:14.261Z,41.50
2019-02-18T01:54:18.741Z,41.50
2019-02-18T01:55:23.233Z,41.50
2019-02-18T01:56:27.706Z,41.60
2019-02-18T01:57:32.230Z,41.70
2019-02-18T01:58:36.682Z,41.70
2019-02-18T01:59:41.178Z,41.70
2019-02-18T02:00:45.642Z,41.80
2019-02-18T02:01:50.110Z,41.80
2019-02-18T02:02:54.575Z,41.80
2019-02-18T02:03:59.130Z,41.90
2019-02-18T02:05:03.729Z,41.90
2019-02-18T02:06:08.185Z,41.80
2019-02-18T02:07:12.647Z,41.80
2019-02-18T02:08:17.123Z,41.80
2019-02-18T02:09:21.596Z,41.80
2019-02-18T02:10:26.366Z,41.70
2019-02-18T02:11:30.819Z,41.70
2019-02-18T02:12:35.306Z,41.70
2019-02-18T02:13:39.770Z,41.70
2019-02-18T02:14:44.267Z,41.70
2019-02-18T02:15:48.756Z,41.70
2019-02-18T02:16:53.286Z,41.70
2019-02-18T02:17:57.757Z,41.80
2019-02-18T02:19:02.256Z,41.90
2019-02-18T02:20:07.699Z,41.80
2019-02-18T02:21:12.178Z,41.90
2019-02-18T02:22:17.021Z,41.90
2019-02-18T02:23:21.482Z,42.60
2019-02-18T02:24:25.963Z,42.00
2019-02-18T02:25:30.449Z,42.10
2019-02-18T02:26:34.924Z,42.10
2019-02-18T02:27:39.400Z,42.10
2019-02-18T02:28:43.866Z,42.20
2019-02-18T02:29:48.325Z,42.10
2019-02-18T02:30:52.881Z,42.10
2019-02-18T02:31:57.355Z,42.20
2019-02-18T02:33:01.855Z,42.20
2019-02-18T02:34:06.353Z,42.30
2019-02-18T02:35:10.815Z,42.40
2019-02-18T02:36:15.317Z,42.40
2019-02-18T02:37:19.845Z,42.50
2019-02-18T02:38:24.319Z,42.50
2019-02-18T02:39:28.834Z,42.60
2019-02-18T02:40:33.323Z,42.60
2019-02-18T02:41:37.781Z,42.70
2019-02-18T02:42:42.243Z,42.70
2019-02-18T02:43:46.761Z,42.70
2019-02-18T02:44:51.297Z,42.70
2019-02-18T02:45:55.815Z,42.70
2019-02-18T02:47:00.316Z,42.70
2019-02-18T02:48:04.796Z,42.70
2019-02-18T02:49:09.271Z,42.70
2019-02-18T02:50:13.751Z,42.60
2019-02-18T02:51:18.377Z,42.70
2019-02-18T02:52:22.845Z,42.70
2019-02-18T02:53:27.311Z,42.60
2019-02-18T02:54:31.795Z,42.70
2019-02-18T02:55:36.268Z,42.70
2019-02-18T02:56:40.758Z,42.70
2019-02-18T02:57:45.518Z,42.70
2019-02-18T02:58:50.355Z,42.70
2019-02-18T02:59:54.829Z,42.60
2019-02-18T03:00:59.304Z,42.60
2019-02-18T03:02:03.782Z,42.60
2019-02-18T03:03:08.248Z,42.60
2019-02-18T03:04:12.732Z,42.70
2019-02-18T03:05:17.230Z,42.70
2019-02-18T03:06:21.706Z,42.70
2019-02-18T03:07:26.175Z,42.70
2019-02-18T03:08:30.636Z,42.70
2019-02-18T03:09:35.107Z,43.30
2019-02-18T03:10:39.595Z,42.70
2019-02-18T03:11:44.069Z,42.90
2019-02-18T03:12:48.532Z,42.90
2019-02-18T03:13:53.015Z,42.90
2019-02-18T03:14:57.474Z,43.00
2019-02-18T03:16:01.950Z,43.00
2019-02-18T03:17:06.412Z,43.10
2019-02-18T03:18:10.880Z,43.00
2019-02-18T03:19:15.347Z,43.10
2019-02-18T03:20:19.844Z,43.10
2019-02-18T03:21:24.298Z,43.20
2019-02-18T03:22:28.742Z,43.20
2019-02-18T03:23:33.234Z,43.20
2019-02-18T03:24:37.756Z,43.20
2019-02-18T03:25:43.794Z,43.20
2019-02-18T03:26:48.324Z,43.20
2019-02-18T03:28:11.264Z,43.20
2019-02-18T03:29:38.210Z,43.20
2019-02-18T03:30:54.740Z,43.20
2019-02-18T03:31:59.217Z,43.10
2019-02-18T03:33:05.409Z,43.20
2019-02-18T03:34:15.902Z,43.20
2019-02-18T03:35:20.381Z,43.30
2019-02-18T03:36:24.899Z,43.30
2019-02-18T03:37:29.450Z,43.30
2019-02-18T03:38:33.932Z,43.30
2019-02-18T03:39:38.412Z,43.30
2019-02-18T03:40:42.892Z,43.40
2019-02-18T03:41:47.366Z,43.50
2019-02-18T03:42:51.841Z,43.50
2019-02-18T03:43:56.548Z,43.50
2019-02-18T03:45:00.997Z,43.60
2019-02-18T03:46:05.533Z,43.70
2019-02-18T03:47:10.040Z,43.80
2019-02-18T03:48:14.526Z,43.70
2019-02-18T03:49:19.009Z,43.70
2019-02-18T03:50:23.542Z,43.80
2019-02-18T03:51:28.106Z,43.80
2019-02-18T03:52:32.587Z,43.90
2019-02-18T03:53:37.115Z,43.90
2019-02-18T03:54:41.601Z,43.80
2019-02-18T03:55:46.177Z,44.00
2019-02-18T03:56:50.799Z,44.00
2019-02-18T03:57:56.039Z,44.00
2019-02-18T03:59:00.679Z,44.00
2019-02-18T04:00:10.784Z,44.10
2019-02-18T04:01:15.354Z,44.10
2019-02-18T04:02:19.897Z,44.10
2019-02-18T04:03:24.560Z,44.20
2019-02-18T04:04:29.221Z,44.20
2019-02-18T04:05:33.780Z,44.60
2019-02-18T04:06:38.253Z,44.00
2019-02-18T04:07:42.717Z,44.10
2019-02-18T04:08:47.226Z,44.10
2019-02-18T04:09:51.750Z,44.20
2019-02-18T04:10:56.193Z,44.20
2019-02-18T04:12:00.689Z,44.20
2019-02-18T04:13:05.234Z,44.30
2019-02-18T04:14:09.735Z,44.40
2019-02-18T04:15:20.500Z,44.40
2019-02-18T04:16:24.977Z,44.30
2019-02-18T04:17:29.498Z,44.20
2019-02-18T04:18:34.021Z,44.20
2019-02-18T04:19:38.488Z,44.30
2019-02-18T04:20:42.977Z,44.40
2019-02-18T04:21:47.431Z,44.40
2019-02-18T04:22:51.895Z,44.40
2019-02-18T04:23:56.363Z,44.50
2019-02-18T04:25:00.831Z,44.50
2019-02-18T04:26:05.318Z,44.50
2019-02-18T04:27:09.797Z,44.50
2019-02-18T04:28:14.238Z,44.50
2019-02-18T04:29:18.717Z,44.60
2019-02-18T04:30:23.184Z,44.60
2019-02-18T04:31:27.649Z,44.60
2019-02-18T04:32:32.131Z,44.60
2019-02-18T04:33:36.594Z,44.60
2019-02-18T04:34:41.076Z,44.80
2019-02-18T04:35:45.544Z,44.80
2019-02-18T04:36:50.003Z,44.80
2019-02-18T04:37:54.526Z,45.00
2019-02-18T04:38:59.363Z,45.00
2019-02-18T04:40:04.679Z,45.10
2019-02-18T04:41:09.149Z,45.00
2019-02-18T04:42:13.611Z,45.00
2019-02-18T04:43:18.163Z,45.00
2019-02-18T04:44:22.630Z,45.00
2019-02-18T04:45:27.110Z,45.20
2019-02-18T04:46:31.804Z,45.20
2019-02-18T04:47:36.336Z,45.20
2019-02-18T04:48:40.790Z,45.20
2019-02-18T04:49:45.253Z,45.30
2019-02-18T04:50:50.003Z,45.30
2019-02-18T04:51:54.479Z,45.30
2019-02-18T04:52:58.956Z,45.30
2019-02-18T04:54:03.521Z,45.40
2019-02-18T04:55:11.282Z,46.00
2019-02-18T04:56:15.753Z,45.40
2019-02-18T04:57:20.249Z,45.20
2019-02-18T04:58:24.714Z,45.20
2019-02-18T04:59:29.179Z,45.20
2019-02-18T05:00:33.644Z,45.30
2019-02-18T05:01:38.123Z,45.30
2019-02-18T05:02:42.581Z,45.40
2019-02-18T05:03:47.033Z,45.50
2019-02-18T05:04:51.507Z,45.50
2019-02-18T05:05:57.842Z,45.50
2019-02-18T05:07:02.175Z,45.50
2019-02-18T05:08:06.743Z,45.50
2019-02-18T05:09:11.199Z,45.60
2019-02-18T05:10:15.677Z,45.50
2019-02-18T05:11:20.221Z,45.50
2019-02-18T05:12:24.710Z,45.60
2019-02-18T05:13:29.253Z,45.70
2019-02-18T05:14:33.799Z,45.70
2019-02-18T05:15:40.185Z,45.70
2019-02-18T05:16:44.447Z,45.70
2019-02-18T05:17:48.884Z,45.70
2019-02-18T05:18:53.375Z,45.70
2019-02-18T05:19:57.859Z,45.70
2019-02-18T05:21:02.416Z,45.70
2019-02-18T05:22:07.061Z,45.70
2019-02-18T05:23:11.543Z,45.70
2019-02-18T05:24:16.012Z,45.70
2019-02-18T05:25:20.482Z,45.70
2019-02-18T05:26:24.943Z,45.80
2019-02-18T05:27:33.233Z,45.70
2019-02-18T05:28:35.669Z,45.60
2019-02-18T05:29:40.140Z,45.70
2019-02-18T05:30:44.594Z,45.70
2019-02-18T05:31:49.081Z,45.70
2019-02-18T05:32:53.783Z,45.80
2019-02-18T05:33:58.278Z,45.70
2019-02-18T05:35:02.871Z,45.80
2019-02-18T05:36:07.588Z,45.80
2019-02-18T05:37:12.077Z,45.90
2019-02-18T05:38:16.537Z,45.90
2019-02-18T05:39:21.008Z,45.90
2019-02-18T05:40:25.710Z,45.90
2019-02-18T05:41:31.237Z,45.90
2019-02-18T05:42:36.393Z,46.00
2019-02-18T05:43:40.890Z,45.90
2019-02-18T05:44:45.443Z,45.90
2019-02-18T05:45:49.934Z,45.90
2019-02-18T05:46:54.396Z,46.00
2019-02-18T05:47:58.855Z,45.90
2019-02-18T05:49:03.342Z,46.00
2019-02-18T05:50:08.529Z,46.00
2019-02-18T05:51:13.025Z,46.10
2019-02-18T05:52:17.501Z,46.10
2019-02-18T05:53:21.998Z,46.20
2019-02-18T05:54:26.487Z,46.10
2019-02-18T05:55:31.213Z,46.20
2019-02-18T05:56:35.769Z,46.20
2019-02-18T05:57:40.242Z,46.20
2019-02-18T05:58:44.806Z,46.20
2019-02-18T05:59:49.263Z,46.20
2019-02-18T06:00:53.731Z,46.70
2019-02-18T06:01:58.219Z,46.40
2019-02-18T06:03:02.676Z,46.50
2019-02-18T06:04:07.160Z,46.30
2019-02-18T06:05:11.686Z,46.40
2019-02-18T06:06:16.201Z,46.50
2019-02-18T06:07:20.684Z,46.50
2019-02-18T06:08:25.167Z,46.60
2019-02-18T06:09:30.548Z,46.60
2019-02-18T06:10:35.159Z,46.70
2019-02-18T06:11:39.723Z,46.70
2019-02-18T06:12:44.235Z,46.70
2019-02-18T06:13:48.704Z,46.70
2019-02-18T06:14:53.153Z,46.80
2019-02-18T06:15:57.652Z,46.80
2019-02-18T06:17:02.915Z,46.80
2019-02-18T06:18:07.532Z,47.00
2019-02-18T06:19:12.082Z,46.90
2019-02-18T06:20:16.579Z,46.80
2019-02-18T06:21:21.057Z,46.90
2019-02-18T06:22:25.518Z,47.00
2019-02-18T06:23:29.991Z,47.00
2019-02-18T06:24:34.452Z,47.20
2019-02-18T06:25:38.953Z,47.00
2019-02-18T06:26:43.489Z,47.10
2019-02-18T06:27:47.971Z,47.00
2019-02-18T06:28:52.452Z,47.10
2019-02-18T06:29:56.917Z,47.70
2019-02-18T06:31:01.446Z,47.20
2019-02-18T06:32:05.900Z,47.30
2019-02-18T06:33:10.381Z,47.20
2019-02-18T06:34:14.857Z,47.20
2019-02-18T06:35:19.326Z,47.20
2019-02-18T06:36:24.042Z,47.30
2019-02-18T06:37:28.623Z,47.40
2019-02-18T06:38:33.123Z,47.40
2019-02-18T06:39:41.312Z,47.40
2019-02-18T06:40:43.837Z,47.60
2019-02-18T06:41:48.353Z,47.60
2019-02-18T06:42:52.805Z,47.60
2019-02-18T06:43:57.298Z,47.70
2019-02-18T06:45:03.399Z,47.80
2019-02-18T06:46:21.745Z,47.70
2019-02-18T06:47:26.306Z,47.70
2019-02-18T06:48:35.414Z,47.60
2019-02-18T06:49:39.943Z,47.70
2019-02-18T06:50:44.415Z,47.70
2019-02-18T06:51:48.909Z,47.80
2019-02-18T06:52:53.472Z,47.70
2019-02-18T06:53:58.079Z,47.80
2019-02-18T06:55:02.587Z,47.80
2019-02-18T06:56:07.071Z,47.90
2019-02-18T06:57:29.676Z,47.90
2019-02-18T06:58:35.854Z,47.90
2019-02-18T06:59:42.039Z,47.90
2019-02-18T07:00:54.016Z,47.90
2019-02-18T07:02:02.577Z,47.80
2019-02-18T07:03:24.897Z,47.80
2019-02-18T07:04:37.133Z,47.90
2019-02-18T07:05:43.234Z,47.90
2019-02-18T07:06:49.437Z,47.90
2019-02-18T07:07:55.625Z,48.00
2019-02-18T07:09:07.160Z,48.10
2019-02-18T07:10:16.324Z,48.10
2019-02-18T07:11:27.943Z,48.10
2019-02-18T07:12:34.143Z,48.10
2019-02-18T07:13:38.591Z,48.10
2019-02-18T07:14:43.131Z,48.10
2019-02-18T07:15:47.590Z,48.20
2019-02-18T07:16:52.062Z,48.20
2019-02-18T07:17:56.585Z,48.20
2019-02-18T07:19:01.038Z,48.20
2019-02-18T07:20:07.316Z,48.30
2019-02-18T07:21:11.813Z,48.40
2019-02-18T07:22:16.277Z,48.50
2019-02-18T07:23:20.788Z,48.50
2019-02-18T07:24:25.285Z,48.40
2019-02-18T07:25:29.813Z,48.50
2019-02-18T07:26:34.338Z,48.50
2019-02-18T07:27:38.819Z,48.50
2019-02-18T07:28:43.277Z,48.40
2019-02-18T07:29:47.774Z,48.40
2019-02-18T07:30:52.318Z,48.50
2019-02-18T07:31:56.772Z,48.50
2019-02-18T07:33:01.252Z,48.50
2019-02-18T07:34:05.708Z,48.50
2019-02-18T07:35:10.248Z,48.50
2019-02-18T07:36:14.701Z,48.60
2019-02-18T07:37:19.165Z,48.60
2019-02-18T07:38:23.762Z,48.50
2019-02-18T07:39:28.226Z,48.40
2019-02-18T07:40:33.607Z,48.50
2019-02-18T07:41:38.075Z,48.40
2019-02-18T07:42:42.541Z,48.40
2019-02-18T07:43:47.002Z,48.40
2019-02-18T07:44:51.459Z,48.40
2019-02-18T07:45:55.995Z,48.30
2019-02-18T07:47:00.477Z,48.20
2019-02-18T07:48:05.027Z,48.20
2019-02-18T07:49:09.517Z,48.10
2019-02-18T07:50:20.636Z,48.00
2019-02-18T07:51:20.165Z,48.10
2019-02-18T07:52:24.711Z,48.00
2019-02-18T07:53:29.209Z,47.90
2019-02-18T07:54:33.677Z,47.80
2019-02-18T07:55:38.196Z,47.80
2019-02-18T07:56:42.661Z,47.80
2019-02-18T07:57:47.141Z,47.80
2019-02-18T07:58:51.893Z,47.80
2019-02-18T07:59:56.385Z,47.70
2019-02-18T08:01:00.881Z,47.50
2019-02-18T08:02:05.379Z,47.50
2019-02-18T08:03:09.877Z,47.40
2019-02-18T08:04:14.594Z,47.30
2019-02-18T08:05:19.137Z,47.30
2019-02-18T08:06:23.587Z,47.20
2019-02-18T08:07:28.061Z,47.20
2019-02-18T08:08:32.536Z,47.20
2019-02-18T08:09:37.003Z,47.10
2019-02-18T08:10:41.493Z,47.20
2019-02-18T08:11:46.085Z,47.10
2019-02-18T08:12:50.551Z,47.10
2019-02-18T08:13:55.014Z,47.10
2019-02-18T08:14:59.484Z,47.00
2019-02-18T08:16:03.952Z,47.00
2019-02-18T08:17:08.451Z,46.90
2019-02-18T08:18:12.993Z,46.90
2019-02-18T08:19:17.488Z,46.80
2019-02-18T08:20:21.996Z,46.70
2019-02-18T08:21:26.472Z,46.70
2019-02-18T08:22:30.999Z,46.70
2019-02-18T08:23:35.480Z,46.70
2019-02-18T08:24:40.018Z,46.70
2019-02-18T08:25:44.521Z,46.70
2019-02-18T08:26:49.007Z,46.60
2019-02-18T08:27:53.496Z,46.50
2019-02-18T08:28:58.124Z,46.50
2019-02-18T08:30:02.589Z,46.40
2019-02-18T08:31:07.139Z,46.40
2019-02-18T08:32:11.693Z,46.50
2019-02-18T08:33:16.164Z,46.40
2019-02-18T08:34:20.651Z,46.30
2019-02-18T08:35:25.602Z,46.20
2019-02-18T08:36:30.054Z,46.20
2019-02-18T08:37:34.574Z,46.20
2019-02-18T08:38:39.029Z,46.10
2019-02-18T08:39:43.585Z,46.10
2019-02-18T08:40:48.168Z,46.00
2019-02-18T08:41:52.671Z,45.90
2019-02-18T08:42:57.157Z,45.80
2019-02-18T08:44:01.636Z,45.70
2019-02-18T08:45:09.383Z,45.70
2019-02-18T08:46:13.863Z,45.50
2019-02-18T08:47:18.613Z,45.50
2019-02-18T08:48:24.192Z,45.50
2019-02-18T08:49:28.823Z,45.50
2019-02-18T08:50:33.281Z,45.40
2019-02-18T08:51:37.755Z,45.30
2019-02-18T08:52:42.603Z,45.20
2019-02-18T08:53:47.899Z,45.20
2019-02-18T08:54:56.562Z,45.10
2019-02-18T08:55:58.778Z,44.90
2019-02-18T08:57:03.319Z,44.80
2019-02-18T08:58:07.812Z,44.80
2019-02-18T08:59:12.508Z,44.60
2019-02-18T09:00:17.741Z,44.50
2019-02-18T09:01:22.276Z,44.50
2019-02-18T09:02:26.784Z,44.40
2019-02-18T09:03:31.415Z,44.40
2019-02-18T09:04:35.897Z,44.30
2019-02-18T09:05:40.363Z,44.30
2019-02-18T09:06:44.837Z,44.20
2019-02-18T09:07:49.339Z,44.20
2019-02-18T09:08:53.829Z,44.10
2019-02-18T09:09:58.364Z,44.00
2019-02-18T09:11:03.096Z,43.90
2019-02-18T09:12:07.725Z,43.90
2019-02-18T09:13:12.324Z,43.80
2019-02-18T09:14:16.813Z,43.80
2019-02-18T09:15:21.295Z,43.80
2019-02-18T09:16:25.809Z,43.70
2019-02-18T09:17:30.371Z,43.70
2019-02-18T09:18:38.305Z,43.70
2019-02-18T09:19:43.221Z,43.70
2019-02-18T09:20:47.767Z,43.60
2019-02-18T09:21:53.899Z,43.50
2019-02-18T09:23:00.048Z,43.50
2019-02-18T09:24:15.167Z,43.50
2019-02-18T09:25:30.447Z,43.50
2019-02-18T09:26:35.402Z,43.50
2019-02-18T09:27:39.883Z,43.40
2019-02-18T09:28:44.368Z,43.40
2019-02-18T09:29:48.819Z,43.30
2019-02-18T09:30:54.004Z,44.10
2019-02-18T09:31:58.453Z,43.40
2019-02-18T09:33:02.934Z,43.40
2019-02-18T09:34:07.466Z,43.40
2019-02-18T09:35:11.999Z,43.50
2019-02-18T09:36:16.492Z,43.70
2019-02-18T09:37:20.962Z,43.40
2019-02-18T09:38:25.690Z,43.50
2019-02-18T09:39:31.428Z,43.50
2019-02-18T09:40:44.193Z,44.00
2019-02-18T09:41:42.414Z,43.50
2019-02-18T09:42:46.893Z,43.50
2019-02-18T09:43:51.441Z,43.80
2019-02-18T09:44:55.902Z,44.00
2019-02-18T09:46:00.369Z,44.50
2019-02-18T09:47:05.013Z,44.80
2019-02-18T09:48:09.619Z,45.10
2019-02-18T09:49:14.160Z,45.30
2019-02-18T09:50:18.613Z,45.60
2019-02-18T09:51:23.149Z,45.70
2019-02-18T09:52:27.807Z,45.90
2019-02-18T09:53:32.284Z,46.50
2019-02-18T09:54:36.768Z,45.80
2019-02-18T09:55:41.273Z,45.60
2019-02-18T09:56:45.897Z,45.50
2019-02-18T09:57:50.373Z,45.20
2019-02-18T09:58:54.967Z,44.80
2019-02-18T09:59:59.425Z,44.40
2019-02-18T10:01:04.062Z,44.10
2019-02-18T10:02:08.541Z,43.50
2019-02-18T10:03:13.209Z,42.90
2019-02-18T10:04:17.750Z,42.30
2019-02-18T10:05:22.241Z,41.80
2019-02-18T10:06:26.715Z,41.20
2019-02-18T10:07:31.271Z,40.70
2019-02-18T10:08:35.771Z,40.00
2019-02-18T10:09:40.242Z,39.50
2019-02-18T10:10:55.106Z,38.70
2019-02-18T10:11:50.898Z,38.00
2019-02-18T10:12:55.402Z,37.30
2019-02-18T10:13:59.885Z,36.70
2019-02-18T10:15:08.347Z,37.10
2019-02-18T10:16:12.938Z,35.70
2019-02-18T10:17:17.511Z,35.10
2019-02-18T10:18:22.058Z,34.40
2019-02-18T10:19:26.565Z,34.00
2019-02-18T10:20:31.040Z,33.10
2019-02-18T10:22:39.643Z,31.60
2019-02-18T10:23:44.131Z,31.60
2019-02-18T10:24:50.913Z,31.40
2019-02-18T10:25:54.864Z,31.10
2019-02-18T10:26:59.347Z,31.00
2019-02-18T10:28:03.795Z,30.20
2019-02-18T10:29:08.277Z,29.90
2019-02-18T10:30:13.030Z,29.80
2019-02-18T10:31:17.789Z,29.40
2019-02-18T10:32:22.263Z,29.30
2019-02-18T10:33:26.745Z,29.20
2019-02-18T10:34:31.233Z,28.90
2019-02-18T10:35:35.720Z,28.70
2019-02-18T10:36:40.204Z,28.50
2019-02-18T10:37:54.616Z,28.10
2019-02-18T10:38:50.999Z,27.90
2019-02-18T10:39:55.504Z,27.70
2019-02-18T10:41:06.981Z,27.50
2019-02-18T10:42:06.234Z,27.30
2019-02-18T10:43:10.732Z,27.10
2019-02-18T10:44:15.274Z,26.80
2019-02-18T10:45:19.778Z,26.70
2019-02-18T10:46:24.937Z,26.50
2019-02-18T10:47:29.478Z,26.30
2019-02-18T10:48:33.947Z,26.10
2019-02-18T10:49:38.423Z,25.80
2019-02-18T10:50:42.951Z,25.60
2019-02-18T10:51:47.474Z,25.50
2019-02-18T10:52:52.023Z,25.30
2019-02-18T10:53:56.776Z,25.10
2019-02-18T10:55:01.608Z,25.00
2019-02-18T10:56:06.159Z,24.90
2019-02-18T10:57:10.629Z,24.70
2019-02-18T10:58:15.095Z,24.50
2019-02-18T10:59:19.571Z,24.30
2019-02-18T11:00:24.110Z,24.10
2019-02-18T11:01:28.574Z,23.90
2019-02-18T11:02:33.131Z,23.80
2019-02-18T11:03:37.592Z,23.60
2019-02-18T11:04:42.062Z,23.50
2019-02-18T11:05:46.561Z,23.30
2019-02-18T11:06:51.105Z,23.30
2019-02-18T11:07:55.627Z,23.20
2019-02-18T11:09:00.337Z,23.20
2019-02-18T11:10:10.843Z,23.00
2019-02-18T11:11:17.205Z,22.90
2019-02-18T11:12:21.893Z,22.90
2019-02-18T11:13:26.432Z,22.70
2019-02-18T11:14:30.912Z,22.60
2019-02-18T11:15:35.471Z,22.50
2019-02-18T11:16:40.375Z,22.40
2019-02-18T11:17:45.074Z,22.30
2019-02-18T11:18:49.838Z,22.20
2019-02-18T11:19:54.518Z,22.00
2019-02-18T11:20:59.151Z,21.70
2019-02-18T11:22:04.193Z,21.60
2019-02-18T11:23:09.139Z,21.40
2019-02-18T11:24:13.678Z,21.40
2019-02-18T11:25:18.293Z,21.30
2019-02-18T11:26:22.983Z,21.20
2019-02-18T11:27:27.516Z,21.20
2019-02-18T11:28:32.014Z,21.10
2019-02-18T11:29:36.671Z,21.10
2019-02-18T11:30:41.205Z,20.90
2019-02-18T11:31:45.875Z,20.90
2019-02-18T11:32:50.420Z,20.80
2019-02-18T11:33:54.911Z,20.60
2019-02-18T11:35:00.628Z,20.60
2019-02-18T11:36:05.520Z,20.40
2019-02-18T11:37:10.065Z,20.90
2019-02-18T11:38:14.618Z,20.10
2019-02-18T11:39:19.167Z,20.00
2019-02-18T11:40:23.750Z,20.00
2019-02-18T11:41:28.566Z,19.90
2019-02-18T11:42:33.100Z,19.90
2019-02-18T11:43:37.677Z,19.70
2019-02-18T11:44:42.350Z,19.60
2019-02-18T11:45:46.873Z,19.60
2019-02-18T11:46:51.339Z,19.50
2019-02-18T11:47:55.803Z,19.40
2019-02-18T11:49:00.361Z,19.40
2019-02-18T11:50:07.581Z,19.30
2019-02-18T11:51:12.141Z,19.20
2019-02-18T11:52:16.652Z,19.20
2019-02-18T11:53:21.317Z,19.20
2019-02-18T11:54:25.910Z,19.20
2019-02-18T11:55:30.695Z,19.20
2019-02-18T11:56:35.307Z,19.30
2019-02-18T11:57:39.845Z,18.80
2019-02-18T11:58:44.393Z,19.20
2019-02-18T11:59:49.030Z,19.00
2019-02-18T12:00:53.866Z,19.10
2019-02-18T12:01:58.400Z,19.00
2019-02-18T12:03:09.556Z,19.00
2019-02-18T12:04:09.376Z,19.00
2019-02-18T12:05:14.051Z,19.10
2019-02-18T12:06:18.694Z,19.10
2019-02-18T12:07:23.185Z,18.90
2019-02-18T12:08:27.661Z,19.00
2019-02-18T12:09:32.208Z,19.00
2019-02-18T12:10:36.741Z,19.00
2019-02-18T12:11:41.250Z,18.90
2019-02-18T12:12:45.818Z,19.00
2019-02-18T12:13:50.378Z,19.00
2019-02-18T12:14:54.943Z,19.00
2019-02-18T12:15:59.414Z,19.10
2019-02-18T12:17:04.275Z,18.90
2019-02-18T12:18:08.758Z,18.80
2019-02-18T12:19:13.322Z,18.80
2019-02-18T12:20:17.825Z,18.80
2019-02-18T12:21:22.355Z,18.80
2019-02-18T12:22:26.835Z,18.80
2019-02-18T12:23:31.429Z,18.80
2019-02-18T12:24:36.026Z,18.80
2019-02-18T12:25:40.566Z,18.70
2019-02-18T12:26:45.210Z,18.70
2019-02-18T12:27:49.677Z,18.70
2019-02-18T12:28:54.143Z,18.70
2019-02-18T12:29:58.698Z,18.70
2019-02-18T12:31:03.259Z,18.60
2019-02-18T12:32:07.718Z,18.50
2019-02-18T12:33:14.447Z,18.50
2019-02-18T12:34:18.905Z,18.50
2019-02-18T12:35:30.556Z,18.40
2019-02-18T12:36:29.580Z,18.50
2019-02-18T12:37:34.063Z,18.40
2019-02-18T12:38:38.648Z,18.40
2019-02-18T12:39:43.178Z,18.40
2019-02-18T12:40:47.716Z,18.40
2019-02-18T12:41:52.278Z,18.30
2019-02-18T12:42:56.775Z,18.30
2019-02-18T12:44:01.262Z,18.20
2019-02-18T12:45:08.679Z,18.20
2019-02-18T12:46:15.765Z,18.20
2019-02-18T12:47:19.577Z,18.20
2019-02-18T12:48:24.125Z,18.20
2019-02-18T12:49:28.602Z,18.10
2019-02-18T12:50:33.185Z,18.20
2019-02-18T12:51:37.771Z,18.10
2019-02-18T12:52:42.567Z,18.10
2019-02-18T12:53:47.425Z,18.10
2019-02-18T12:54:52.038Z,18.10
2019-02-18T12:55:56.662Z,18.10
2019-02-18T12:57:01.205Z,18.00
2019-02-18T12:58:05.755Z,18.00
2019-02-18T12:59:10.304Z,17.90
2019-02-18T13:00:16.511Z,17.80
2019-02-18T13:01:21.220Z,17.80
2019-02-18T13:02:25.772Z,17.80
2019-02-18T13:03:30.389Z,17.90
2019-02-18T13:04:34.999Z,17.80
2019-02-18T13:05:39.597Z,17.90
2019-02-18T13:06:44.178Z,17.80
2019-02-18T13:07:49.005Z,17.80
2019-02-18T13:08:53.570Z,17.70
2019-02-18T13:09:58.141Z,17.80
2019-02-18T13:11:02.665Z,17.80
2019-02-18T13:12:07.239Z,17.70
2019-02-18T13:13:11.833Z,17.60
2019-02-18T13:14:16.396Z,17.50
2019-02-18T13:15:20.969Z,17.50
2019-02-18T13:16:25.692Z,17.50
2019-02-18T13:17:30.255Z,17.40
2019-02-18T13:18:34.925Z,17.40
2019-02-18T13:19:39.805Z,17.40
2019-02-18T13:20:44.348Z,17.30
2019-02-18T13:21:49.047Z,17.30
2019-02-18T13:22:54.003Z,17.30
2019-02-18T13:23:58.654Z,17.30
2019-02-18T13:25:03.177Z,17.30
2019-02-18T13:26:07.779Z,17.30
2019-02-18T13:27:12.266Z,17.30
2019-02-18T13:28:16.950Z,17.10
2019-02-18T13:29:21.484Z,17.00
2019-02-18T13:30:26.040Z,17.00
2019-02-18T13:31:30.609Z,16.90
2019-02-18T13:32:35.078Z,17.00
2019-02-18T13:33:39.566Z,16.80
2019-02-18T13:34:44.067Z,16.90
2019-02-18T13:35:48.833Z,17.00
2019-02-18T13:36:56.341Z,17.00
2019-02-18T13:38:00.821Z,17.00
2019-02-18T13:39:06.624Z,17.00
2019-02-18T13:40:13.916Z,17.10
2019-02-18T13:41:19.503Z,17.10
2019-02-18T13:42:24.308Z,17.10
2019-02-18T13:43:28.762Z,17.10
2019-02-18T13:44:33.252Z,17.20
2019-02-18T13:45:37.789Z,17.20
2019-02-18T13:46:42.257Z,17.20
2019-02-18T13:47:46.738Z,17.20
2019-02-18T13:48:51.212Z,17.20
2019-02-18T13:49:55.785Z,17.30
2019-02-18T13:51:00.420Z,17.20
2019-02-18T13:52:05.169Z,17.30
2019-02-18T13:53:09.708Z,17.20
2019-02-18T13:54:14.252Z,17.20
2019-02-18T13:55:19.095Z,17.40
2019-02-18T13:56:23.672Z,17.30